UAE28Y EGPH-EGKK
Flight info
| Callsign | UAE28Y |
|---|---|
| Flight time | 0h 56m |
| Altitude | 33000 |
| Route | GOSAM P600 FENIK L612 NAVSO DCT KEPAD L151 DISIT |
| Aircraft | A359/H-SDE2E3GHIJ3J4J5LM1ORWXY/LB1D1 |
Departure
| Time | 2026-04-21 13:43 |
|---|---|
| Airport | Edinburgh Airport (EGPH) |
Arrival
| Time | 2026-04-21 14:39 |
|---|---|
| Airport | London Gatwick Airport (EGKK) |
| Time | Latitude | Longitude | Altitude | Speed | Heading |
|---|---|---|---|---|---|
| 2026-04-21 13:09 | 55.95021 | -3.36062 | 118 ft | 0 kts | 248° |
| 2026-04-21 13:09 | 55.95024 | -3.36050 | 118 ft | 0 kts | 248° |
| 2026-04-21 13:25 | 55.95024 | -3.36049 | 123 ft | 1 kts | 248° |
| 2026-04-21 13:25 | 55.95033 | -3.36011 | 118 ft | 4 kts | 248° |
| 2026-04-21 13:26 | 55.95043 | -3.35967 | 118 ft | 4 kts | 248° |
| 2026-04-21 13:26 | 55.95050 | -3.35932 | 118 ft | 4 kts | 253° |
| 2026-04-21 13:26 | 55.95055 | -3.35885 | 118 ft | 4 kts | 276° |
| 2026-04-21 13:26 | 55.95050 | -3.35853 | 118 ft | 0 kts | 298° |
| 2026-04-21 13:27 | 55.95061 | -3.35888 | 118 ft | 3 kts | 298° |
| 2026-04-21 13:27 | 55.95063 | -3.35893 | 118 ft | 0 kts | 298° |
| 2026-04-21 13:29 | 55.95063 | -3.35894 | 118 ft | 0 kts | 298° |
| 2026-04-21 13:30 | 55.95077 | -3.35941 | 118 ft | 11 kts | 296° |
| 2026-04-21 13:30 | 55.95112 | -3.36099 | 120 ft | 16 kts | 289° |
| 2026-04-21 13:30 | 55.95126 | -3.36307 | 117 ft | 18 kts | 240° |
| 2026-04-21 13:30 | 55.95052 | -3.36524 | 117 ft | 23 kts | 239° |
| 2026-04-21 13:31 | 55.94963 | -3.36785 | 118 ft | 27 kts | 239° |
| 2026-04-21 13:31 | 55.94862 | -3.37088 | 117 ft | 30 kts | 239° |
| 2026-04-21 13:31 | 55.94747 | -3.37426 | 117 ft | 33 kts | 238° |
| 2026-04-21 13:31 | 55.94670 | -3.37650 | 118 ft | 19 kts | 239° |
| 2026-04-21 13:32 | 55.94593 | -3.37877 | 117 ft | 23 kts | 238° |
| 2026-04-21 13:32 | 55.94504 | -3.38142 | 119 ft | 27 kts | 239° |
| 2026-04-21 13:32 | 55.94411 | -3.38415 | 118 ft | 24 kts | 239° |
| 2026-04-21 13:32 | 55.94354 | -3.38584 | 118 ft | 7 kts | 239° |
| 2026-04-21 13:33 | 55.94330 | -3.38655 | 119 ft | 0 kts | 238° |
| 2026-04-21 13:34 | 55.94326 | -3.38665 | 120 ft | 4 kts | 238° |
| 2026-04-21 13:35 | 55.94306 | -3.38725 | 117 ft | 8 kts | 238° |
| 2026-04-21 13:35 | 55.94283 | -3.38801 | 120 ft | 7 kts | 252° |
| 2026-04-21 13:35 | 55.94282 | -3.38832 | 119 ft | 0 kts | 275° |
| 2026-04-21 13:36 | 55.94282 | -3.38833 | 119 ft | 1 kts | 276° |
| 2026-04-21 13:36 | 55.94293 | -3.38862 | 117 ft | 5 kts | 304° |
| 2026-04-21 13:37 | 55.94316 | -3.38897 | 118 ft | 0 kts | 327° |
| 2026-04-21 13:41 | 55.94317 | -3.38897 | 122 ft | 0 kts | 327° |
| 2026-04-21 13:41 | 55.94337 | -3.38921 | 120 ft | 8 kts | 327° |
| 2026-04-21 13:41 | 55.94404 | -3.38957 | 116 ft | 11 kts | 18° |
| 2026-04-21 13:41 | 55.94460 | -3.38842 | 116 ft | 14 kts | 63° |
| 2026-04-21 13:42 | 55.94479 | -3.38783 | 115 ft | 0 kts | 58° |
| 2026-04-21 13:42 | 55.94480 | -3.38783 | 115 ft | 0 kts | 58° |
| 2026-04-21 13:42 | 55.94542 | -3.38599 | 114 ft | 56 kts | 59° |
| 2026-04-21 13:42 | 55.94937 | -3.37428 | 149 ft | 159 kts | 59° |
| 2026-04-21 13:43 | 55.95622 | -3.35434 | 654 ft | 210 kts | 59° |
| 2026-04-21 13:43 | 55.96557 | -3.33379 | 1625 ft | 217 kts | 45° |
| 2026-04-21 13:43 | 55.97863 | -3.31797 | 2247 ft | 234 kts | 26° |
| 2026-04-21 13:43 | 55.99489 | -3.31522 | 3200 ft | 246 kts | 351° |
| 2026-04-21 13:44 | 56.01005 | -3.33142 | 3877 ft | 268 kts | 315° |
| 2026-04-21 13:44 | 56.01923 | -3.36066 | 4620 ft | 279 kts | 292° |
| 2026-04-21 13:44 | 56.02404 | -3.39456 | 5405 ft | 286 kts | 276° |
| 2026-04-21 13:44 | 56.02206 | -3.42959 | 5877 ft | 286 kts | 252° |
| 2026-04-21 13:45 | 56.01637 | -3.46402 | 6032 ft | 291 kts | 251° |
| 2026-04-21 13:45 | 56.01072 | -3.49853 | 5934 ft | 288 kts | 252° |
| 2026-04-21 13:45 | 56.00554 | -3.53326 | 5984 ft | 290 kts | 253° |
| 2026-04-21 13:45 | 56.00050 | -3.56808 | 5992 ft | 290 kts | 253° |
| 2026-04-21 13:46 | 55.99550 | -3.60287 | 5988 ft | 288 kts | 253° |
| 2026-04-21 13:46 | 55.98808 | -3.63593 | 6166 ft | 286 kts | 236° |
| 2026-04-21 13:46 | 55.97497 | -3.66182 | 6417 ft | 278 kts | 210° |
| 2026-04-21 13:46 | 55.95747 | -3.67408 | 6547 ft | 267 kts | 181° |
| 2026-04-21 13:47 | 55.93925 | -3.67399 | 6553 ft | 261 kts | 168° |
| 2026-04-21 13:47 | 55.92137 | -3.66851 | 6550 ft | 260 kts | 163° |
| 2026-04-21 13:47 | 55.90378 | -3.66054 | 6551 ft | 260 kts | 161° |
| 2026-04-21 13:47 | 55.88638 | -3.65185 | 6726 ft | 259 kts | 160° |
| 2026-04-21 13:48 | 55.87481 | -3.64612 | 7102 ft | 261 kts | 160° |
| 2026-04-21 13:48 | 55.85139 | -3.63502 | 8142 ft | 264 kts | 162° |
| 2026-04-21 13:48 | 55.83365 | -3.62722 | 9088 ft | 262 kts | 162° |
| 2026-04-21 13:48 | 55.81584 | -3.61970 | 9897 ft | 265 kts | 163° |
| 2026-04-21 13:49 | 55.79771 | -3.61220 | 10655 ft | 270 kts | 163° |
| 2026-04-21 13:49 | 55.78538 | -3.60716 | 10995 ft | 279 kts | 163° |
| 2026-04-21 13:49 | 55.76587 | -3.59914 | 11308 ft | 297 kts | 163° |
| 2026-04-21 13:49 | 55.74509 | -3.59062 | 11638 ft | 314 kts | 163° |
| 2026-04-21 13:50 | 55.72334 | -3.58173 | 12004 ft | 327 kts | 164° |
| 2026-04-21 13:50 | 55.70073 | -3.57255 | 12499 ft | 336 kts | 163° |
| 2026-04-21 13:50 | 55.67780 | -3.56331 | 13120 ft | 339 kts | 164° |
| 2026-04-21 13:50 | 55.65467 | -3.55400 | 13758 ft | 343 kts | 164° |
| 2026-04-21 13:51 | 55.63123 | -3.54456 | 14353 ft | 347 kts | 163° |
| 2026-04-21 13:51 | 55.60760 | -3.53504 | 14905 ft | 351 kts | 163° |
| 2026-04-21 13:51 | 55.58367 | -3.52538 | 15481 ft | 354 kts | 163° |
| 2026-04-21 13:51 | 55.55951 | -3.51561 | 16025 ft | 357 kts | 163° |
| 2026-04-21 13:52 | 55.53513 | -3.50574 | 16560 ft | 361 kts | 163° |
| 2026-04-21 13:52 | 55.51084 | -3.49596 | 17105 ft | 364 kts | 163° |
| 2026-04-21 13:52 | 55.48597 | -3.48595 | 17656 ft | 368 kts | 163° |
| 2026-04-21 13:52 | 55.46096 | -3.47590 | 18230 ft | 371 kts | 163° |
| 2026-04-21 13:53 | 55.43552 | -3.46568 | 18834 ft | 373 kts | 163° |
| 2026-04-21 13:53 | 55.41028 | -3.45555 | 19291 ft | 376 kts | 164° |
| 2026-04-21 13:53 | 55.38462 | -3.44527 | 19777 ft | 379 kts | 164° |
| 2026-04-21 13:53 | 55.35890 | -3.43499 | 20224 ft | 382 kts | 163° |
| 2026-04-21 13:54 | 55.33286 | -3.42460 | 20717 ft | 384 kts | 164° |
| 2026-04-21 13:54 | 55.30670 | -3.41417 | 21172 ft | 387 kts | 164° |
| 2026-04-21 13:54 | 55.28033 | -3.40369 | 21633 ft | 390 kts | 164° |
| 2026-04-21 13:54 | 55.25378 | -3.39313 | 22080 ft | 393 kts | 164° |
| 2026-04-21 13:55 | 55.22703 | -3.38251 | 22537 ft | 395 kts | 164° |
| 2026-04-21 13:55 | 55.20006 | -3.37183 | 23038 ft | 397 kts | 165° |
| 2026-04-21 13:55 | 55.17307 | -3.36115 | 23504 ft | 399 kts | 164° |
| 2026-04-21 13:55 | 55.14620 | -3.35052 | 23969 ft | 401 kts | 164° |
| 2026-04-21 13:56 | 55.11881 | -3.33970 | 24350 ft | 405 kts | 165° |
| 2026-04-21 13:56 | 55.09117 | -3.32879 | 24735 ft | 407 kts | 165° |
| 2026-04-21 13:56 | 55.06342 | -3.31786 | 25123 ft | 411 kts | 165° |
| 2026-04-21 13:56 | 55.03538 | -3.30683 | 25509 ft | 414 kts | 165° |
| 2026-04-21 13:57 | 55.00734 | -3.29585 | 26055 ft | 413 kts | 166° |
| 2026-04-21 13:57 | 54.97912 | -3.28480 | 26503 ft | 416 kts | 165° |
| 2026-04-21 13:57 | 54.95083 | -3.27371 | 27000 ft | 419 kts | 166° |
| 2026-04-21 13:57 | 54.92204 | -3.26246 | 27197 ft | 429 kts | 166° |
| 2026-04-21 13:58 | 54.89291 | -3.25114 | 27746 ft | 430 kts | 166° |
| 2026-04-21 13:58 | 54.86359 | -3.23971 | 28194 ft | 435 kts | 167° |
| 2026-04-21 13:58 | 54.83394 | -3.22816 | 28678 ft | 437 kts | 167° |
| 2026-04-21 13:58 | 54.80410 | -3.21654 | 29169 ft | 441 kts | 167° |
| 2026-04-21 13:59 | 54.77431 | -3.20497 | 29723 ft | 443 kts | 167° |
| 2026-04-21 13:59 | 54.74398 | -3.19321 | 30134 ft | 449 kts | 167° |
| 2026-04-21 13:59 | 54.71338 | -3.18137 | 30574 ft | 453 kts | 167° |
| 2026-04-21 13:59 | 54.68214 | -3.16929 | 30724 ft | 463 kts | 170° |
| 2026-04-21 14:00 | 54.65032 | -3.15704 | 30843 ft | 474 kts | 171° |
| 2026-04-21 14:00 | 54.61796 | -3.14465 | 31210 ft | 478 kts | 169° |
| 2026-04-21 14:00 | 54.58571 | -3.13225 | 31534 ft | 482 kts | 171° |
| 2026-04-21 14:00 | 54.55288 | -3.11967 | 32021 ft | 483 kts | 171° |
| 2026-04-21 14:01 | 54.51991 | -3.10704 | 32427 ft | 485 kts | 169° |
| 2026-04-21 14:01 | 54.48693 | -3.09438 | 32794 ft | 488 kts | 171° |
| 2026-04-21 14:01 | 54.45382 | -3.08173 | 33025 ft | 493 kts | 170° |
| 2026-04-21 14:01 | 54.42035 | -3.06895 | 33294 ft | 497 kts | 170° |
| 2026-04-21 14:02 | 54.38634 | -3.05600 | 33416 ft | 496 kts | 170° |
| 2026-04-21 14:02 | 54.35261 | -3.04316 | 33427 ft | 494 kts | 170° |
| 2026-04-21 14:03 | 54.25244 | -3.00518 | 33431 ft | 493 kts | 170° |
| 2026-04-21 14:03 | 54.18521 | -2.97985 | 33426 ft | 494 kts | 170° |
| 2026-04-21 14:04 | 54.11811 | -2.95463 | 33406 ft | 494 kts | 170° |
| 2026-04-21 14:04 | 54.05105 | -2.92950 | 33412 ft | 494 kts | 170° |
| 2026-04-21 14:05 | 53.98373 | -2.90437 | 33398 ft | 494 kts | 170° |
| 2026-04-21 14:05 | 53.91689 | -2.87947 | 33404 ft | 496 kts | 171° |
| 2026-04-21 14:06 | 53.84942 | -2.85445 | 33399 ft | 497 kts | 171° |
| 2026-04-21 14:06 | 53.78179 | -2.82944 | 33403 ft | 497 kts | 171° |
| 2026-04-21 14:07 | 53.71429 | -2.80455 | 33389 ft | 497 kts | 171° |
| 2026-04-21 14:07 | 53.64643 | -2.77962 | 33384 ft | 501 kts | 172° |
| 2026-04-21 14:08 | 53.57809 | -2.75463 | 33378 ft | 502 kts | 172° |
| 2026-04-21 14:08 | 53.50979 | -2.72969 | 33378 ft | 502 kts | 172° |
| 2026-04-21 14:09 | 53.44178 | -2.70495 | 33375 ft | 502 kts | 172° |
| 2026-04-21 14:09 | 53.37348 | -2.68019 | 33387 ft | 502 kts | 172° |
| 2026-04-21 14:10 | 53.30507 | -2.65547 | 33387 ft | 502 kts | 172° |
| 2026-04-21 14:10 | 53.23662 | -2.63082 | 33390 ft | 502 kts | 172° |
| 2026-04-21 14:11 | 53.16811 | -2.60624 | 33384 ft | 505 kts | 172° |
| 2026-04-21 14:11 | 53.09930 | -2.58164 | 33369 ft | 506 kts | 172° |
| 2026-04-21 14:12 | 53.03042 | -2.55707 | 33359 ft | 506 kts | 172° |
| 2026-04-21 14:12 | 52.96190 | -2.53269 | 33341 ft | 507 kts | 173° |
| 2026-04-21 14:13 | 52.89275 | -2.50820 | 33349 ft | 509 kts | 173° |
| 2026-04-21 14:13 | 52.82375 | -2.48004 | 33347 ft | 515 kts | 164° |
| 2026-04-21 14:14 | 52.75946 | -2.42593 | 33346 ft | 522 kts | 151° |
| 2026-04-21 14:14 | 52.69890 | -2.35974 | 33375 ft | 525 kts | 148° |
| 2026-04-21 14:15 | 52.63846 | -2.29115 | 33372 ft | 527 kts | 148° |
| 2026-04-21 14:15 | 52.60816 | -2.25720 | 33225 ft | 530 kts | 149° |
| 2026-04-21 14:15 | 52.57742 | -2.22319 | 32651 ft | 532 kts | 149° |
| 2026-04-21 14:15 | 52.54661 | -2.18940 | 31628 ft | 535 kts | 149° |
| 2026-04-21 14:16 | 52.51554 | -2.15553 | 30660 ft | 538 kts | 149° |
| 2026-04-21 14:16 | 52.48423 | -2.12152 | 29539 ft | 540 kts | 149° |
| 2026-04-21 14:16 | 52.45294 | -2.08761 | 28670 ft | 537 kts | 149° |
| 2026-04-21 14:16 | 52.42195 | -2.05401 | 27982 ft | 530 kts | 149° |
| 2026-04-21 14:17 | 52.39135 | -2.02083 | 27266 ft | 525 kts | 148° |
| 2026-04-21 14:17 | 52.36101 | -1.98794 | 26547 ft | 520 kts | 148° |
| 2026-04-21 14:17 | 52.33095 | -1.95550 | 25847 ft | 515 kts | 148° |
| 2026-04-21 14:17 | 52.30117 | -1.92345 | 25132 ft | 510 kts | 148° |
| 2026-04-21 14:18 | 52.27167 | -1.89177 | 24437 ft | 505 kts | 147° |
| 2026-04-21 14:18 | 52.24282 | -1.86080 | 23767 ft | 499 kts | 147° |
| 2026-04-21 14:18 | 52.21396 | -1.82989 | 23022 ft | 493 kts | 147° |
| 2026-04-21 14:18 | 52.18554 | -1.79949 | 22368 ft | 484 kts | 147° |
| 2026-04-21 14:19 | 52.15758 | -1.76961 | 21709 ft | 476 kts | 147° |
| 2026-04-21 14:19 | 52.13006 | -1.74026 | 20993 ft | 469 kts | 147° |
| 2026-04-21 14:19 | 52.10297 | -1.71142 | 20469 ft | 458 kts | 147° |
| 2026-04-21 14:19 | 52.07665 | -1.68335 | 19961 ft | 446 kts | 146° |
| 2026-04-21 14:20 | 52.05136 | -1.65648 | 19550 ft | 434 kts | 146° |
| 2026-04-21 14:20 | 52.02642 | -1.63005 | 19149 ft | 424 kts | 146° |
| 2026-04-21 14:20 | 52.00177 | -1.60392 | 18789 ft | 424 kts | 146° |
| 2026-04-21 14:20 | 51.97718 | -1.57791 | 18380 ft | 419 kts | 146° |
| 2026-04-21 14:21 | 51.95287 | -1.55219 | 18005 ft | 414 kts | 146° |
| 2026-04-21 14:21 | 51.92880 | -1.52678 | 17639 ft | 411 kts | 146° |
| 2026-04-21 14:21 | 51.90492 | -1.50161 | 17287 ft | 409 kts | 146° |
| 2026-04-21 14:21 | 51.88112 | -1.47656 | 16922 ft | 406 kts | 146° |
| 2026-04-21 14:22 | 51.85740 | -1.45172 | 16587 ft | 401 kts | 145° |
| 2026-04-21 14:22 | 51.83424 | -1.42742 | 16235 ft | 393 kts | 144° |
| 2026-04-21 14:22 | 51.81140 | -1.40342 | 15889 ft | 390 kts | 144° |
| 2026-04-21 14:22 | 51.78865 | -1.37955 | 15551 ft | 390 kts | 144° |
| 2026-04-21 14:23 | 51.76591 | -1.35571 | 15242 ft | 390 kts | 144° |
| 2026-04-21 14:23 | 51.74313 | -1.33181 | 15107 ft | 390 kts | 144° |
| 2026-04-21 14:23 | 51.72039 | -1.30811 | 14946 ft | 388 kts | 144° |
| 2026-04-21 14:23 | 51.69776 | -1.28456 | 14814 ft | 386 kts | 144° |
| 2026-04-21 14:24 | 51.67549 | -1.26139 | 14634 ft | 385 kts | 144° |
| 2026-04-21 14:24 | 51.65298 | -1.23798 | 14484 ft | 384 kts | 144° |
| 2026-04-21 14:24 | 51.63056 | -1.21470 | 14333 ft | 383 kts | 144° |
| 2026-04-21 14:24 | 51.60821 | -1.19150 | 14189 ft | 381 kts | 144° |
| 2026-04-21 14:25 | 51.58597 | -1.16845 | 14038 ft | 380 kts | 144° |
| 2026-04-21 14:25 | 51.56377 | -1.14546 | 13858 ft | 379 kts | 144° |
| 2026-04-21 14:25 | 51.54164 | -1.12259 | 13710 ft | 377 kts | 144° |
| 2026-04-21 14:25 | 51.51961 | -1.09984 | 13567 ft | 376 kts | 144° |
| 2026-04-21 14:26 | 51.49765 | -1.07719 | 13414 ft | 375 kts | 144° |
| 2026-04-21 14:26 | 51.47571 | -1.05459 | 13275 ft | 374 kts | 144° |
| 2026-04-21 14:26 | 51.45405 | -1.03230 | 13085 ft | 373 kts | 144° |
| 2026-04-21 14:26 | 51.43204 | -1.00969 | 12393 ft | 370 kts | 144° |
| 2026-04-21 14:27 | 51.41068 | -0.98777 | 11638 ft | 366 kts | 144° |
| 2026-04-21 14:27 | 51.38935 | -0.96591 | 10841 ft | 356 kts | 144° |
| 2026-04-21 14:27 | 51.36881 | -0.94489 | 9582 ft | 347 kts | 144° |
| 2026-04-21 14:27 | 51.34895 | -0.92460 | 8782 ft | 327 kts | 144° |
| 2026-04-21 14:28 | 51.33052 | -0.90583 | 8272 ft | 303 kts | 144° |
| 2026-04-21 14:28 | 51.31338 | -0.88837 | 7815 ft | 281 kts | 143° |
| 2026-04-21 14:28 | 51.29729 | -0.87193 | 7214 ft | 269 kts | 143° |
| 2026-04-21 14:28 | 51.28171 | -0.85602 | 6488 ft | 263 kts | 143° |
| 2026-04-21 14:29 | 51.26646 | -0.84061 | 5821 ft | 255 kts | 142° |
| 2026-04-21 14:29 | 51.25147 | -0.82590 | 5108 ft | 251 kts | 143° |
| 2026-04-21 14:29 | 51.23667 | -0.81146 | 4319 ft | 249 kts | 143° |
| 2026-04-21 14:29 | 51.22191 | -0.79703 | 3584 ft | 247 kts | 143° |
| 2026-04-21 14:30 | 51.20722 | -0.78294 | 3117 ft | 246 kts | 143° |
| 2026-04-21 14:30 | 51.19264 | -0.76907 | 2996 ft | 248 kts | 143° |
| 2026-04-21 14:30 | 51.17784 | -0.75498 | 2984 ft | 247 kts | 143° |
| 2026-04-21 14:30 | 51.16305 | -0.74099 | 2992 ft | 247 kts | 143° |
| 2026-04-21 14:31 | 51.14828 | -0.72711 | 2985 ft | 239 kts | 143° |
| 2026-04-21 14:31 | 51.13456 | -0.71448 | 2992 ft | 222 kts | 143° |
| 2026-04-21 14:31 | 51.12133 | -0.70227 | 2989 ft | 218 kts | 141° |
| 2026-04-21 14:31 | 51.11108 | -0.68578 | 2993 ft | 206 kts | 114° |
| 2026-04-21 14:32 | 51.10561 | -0.66499 | 2992 ft | 203 kts | 104° |
| 2026-04-21 14:32 | 51.10117 | -0.64359 | 2986 ft | 204 kts | 104° |
| 2026-04-21 14:32 | 51.09708 | -0.62200 | 2988 ft | 202 kts | 101° |
| 2026-04-21 14:32 | 51.09464 | -0.60006 | 2981 ft | 201 kts | 94° |
| 2026-04-21 14:33 | 51.09527 | -0.57826 | 2991 ft | 199 kts | 81° |
| 2026-04-21 14:33 | 51.09791 | -0.55659 | 2996 ft | 200 kts | 77° |
| 2026-04-21 14:33 | 51.10087 | -0.53564 | 2983 ft | 186 kts | 77° |
| 2026-04-21 14:33 | 51.10361 | -0.51601 | 2996 ft | 180 kts | 77° |
| 2026-04-21 14:34 | 51.10625 | -0.49670 | 3005 ft | 178 kts | 78° |
| 2026-04-21 14:34 | 51.10886 | -0.47735 | 3008 ft | 179 kts | 78° |
| 2026-04-21 14:34 | 51.11148 | -0.45790 | 2997 ft | 180 kts | 78° |
| 2026-04-21 14:34 | 51.11412 | -0.43844 | 2993 ft | 179 kts | 77° |
| 2026-04-21 14:35 | 51.11672 | -0.41949 | 2951 ft | 173 kts | 77° |
| 2026-04-21 14:35 | 51.11914 | -0.40191 | 2761 ft | 153 kts | 77° |
| 2026-04-21 14:35 | 51.12063 | -0.39108 | 2609 ft | 145 kts | 77° |
| 2026-04-21 14:35 | 51.12270 | -0.37599 | 2409 ft | 135 kts | 77° |
| 2026-04-21 14:36 | 51.12520 | -0.35772 | 2171 ft | 121 kts | 76° |
| 2026-04-21 14:36 | 51.12638 | -0.34916 | 2061 ft | 113 kts | 76° |
| 2026-04-21 14:36 | 51.12801 | -0.33735 | 1918 ft | 110 kts | 76° |
| 2026-04-21 14:36 | 51.12964 | -0.32542 | 1770 ft | 111 kts | 76° |
| 2026-04-21 14:37 | 51.13129 | -0.31346 | 1613 ft | 111 kts | 77° |
| 2026-04-21 14:37 | 51.13295 | -0.30131 | 1467 ft | 114 kts | 77° |
| 2026-04-21 14:37 | 51.13463 | -0.28904 | 1311 ft | 113 kts | 76° |
| 2026-04-21 14:37 | 51.13628 | -0.27698 | 1150 ft | 110 kts | 76° |
| 2026-04-21 14:38 | 51.13790 | -0.26532 | 979 ft | 107 kts | 77° |
| 2026-04-21 14:38 | 51.13956 | -0.25344 | 852 ft | 114 kts | 76° |
| 2026-04-21 14:38 | 51.14117 | -0.24086 | 680 ft | 116 kts | 74° |
| 2026-04-21 14:38 | 51.14294 | -0.22840 | 489 ft | 115 kts | 75° |
| 2026-04-21 14:39 | 51.14461 | -0.21571 | 370 ft | 118 kts | 74° |
| 2026-04-21 14:39 | 51.14634 | -0.20320 | 240 ft | 113 kts | 74° |
| 2026-04-21 14:39 | 51.14799 | -0.19148 | 221 ft | 99 kts | 78° |
| 2026-04-21 14:39 | 51.14927 | -0.18542 | 220 ft | 18 kts | 52° |
| 2026-04-21 14:40 | 51.14985 | -0.18428 | 220 ft | 17 kts | 51° |
| 2026-04-21 14:40 | 51.15059 | -0.18278 | 217 ft | 16 kts | 52° |
| 2026-04-21 14:40 | 51.15098 | -0.18205 | 219 ft | 0 kts | 40° |
| 2026-04-21 14:41 | 51.15101 | -0.18203 | 221 ft | 3 kts | 35° |
| 2026-04-21 14:41 | 51.15156 | -0.18197 | 211 ft | 11 kts | 351° |
| 2026-04-21 14:42 | 51.15204 | -0.18211 | 215 ft | 13 kts | 348° |
| 2026-04-21 14:42 | 51.15303 | -0.18247 | 212 ft | 17 kts | 347° |
| 2026-04-21 14:42 | 51.15412 | -0.18260 | 216 ft | 14 kts | 31° |
| 2026-04-21 14:42 | 51.15498 | -0.18193 | 213 ft | 15 kts | 352° |
| 2026-04-21 14:43 | 51.15612 | -0.18233 | 219 ft | 18 kts | 349° |
| 2026-04-21 14:43 | 51.15681 | -0.18115 | 219 ft | 17 kts | 75° |
| 2026-04-21 14:43 | 51.15764 | -0.18052 | 219 ft | 16 kts | 349° |
| 2026-04-21 14:43 | 51.15883 | -0.18093 | 218 ft | 19 kts | 348° |
| 2026-04-21 14:44 | 51.16025 | -0.18143 | 220 ft | 22 kts | 348° |
| 2026-04-21 14:44 | 51.16136 | -0.18175 | 216 ft | 12 kts | 8° |
| 2026-04-21 14:44 | 51.16178 | -0.18090 | 221 ft | 0 kts | 78° |
| 2026-04-21 14:45 | 51.16178 | -0.18089 | 221 ft | 0 kts | 79° |
| 2026-04-21 14:45 | 51.16181 | -0.18064 | 217 ft | 0 kts | 78° |